Time;durP1;ratioP1;P1;durP2;ratioP2;P2;SDS_P1;SDS_P2;PMS_P1;PMS_P2;Temp;Humidity;BMP_temperature;BMP_pressure;BME280_temperature;BME280_humidity;BME280_pressure;Samples;Min_cycle;Max_cycle;Signal;HPM_P1;HPM_P2
2022/12/16 00:01:27;;;;;;;5.55;4.95;;;;;;;7.09;65.45;94974.22;5009214;28;20240;-65
2022/12/16 00:03:56;;;;;;;12.95;7.93;;;;;;;7.05;65.61;94970.47;5009347;28;20190;-66
2022/12/16 00:06:26;;;;;;;7.80;6.75;;;;;;;6.93;65.02;94989.78;5012722;28;20182;-66
2022/12/16 00:08:52;;;;;;;14.52;8.70;;;;;;;6.38;66.13;94981.59;4999031;28;20214;-67
2022/12/16 00:11:20;;;;;;;9.10;8.15;;;;;;;6.86;65.69;94989.88;5012801;28;20244;-67
2022/12/16 00:13:47;;;;;;;6.60;4.75;;;;;;;6.61;65.92;94994.56;5012802;28;20233;-67
2022/12/16 00:16:18;;;;;;;11.80;8.95;;;;;;;6.35;65.75;94982.00;4999421;28;20577;-66
2022/12/16 00:18:46;;;;;;;10.00;7.65;;;;;;;6.84;65.68;94978.13;5025439;28;20208;-67
2022/12/16 00:21:13;;;;;;;6.22;5.68;;;;;;;6.28;66.30;94983.94;5013610;28;20332;-66
2022/12/16 00:23:40;;;;;;;13.30;6.95;;;;;;;6.48;65.56;94981.03;5012678;28;20649;-65
2022/12/16 00:26:10;;;;;;;12.70;8.48;;;;;;;6.46;65.93;94989.03;5012613;28;20198;-65
2022/12/16 00:28:38;;;;;;;7.75;5.53;;;;;;;6.67;65.80;94978.03;5013129;28;20208;-65
2022/12/16 00:31:05;;;;;;;7.78;5.30;;;;;;;6.72;65.48;94966.94;5024782;28;20192;-65
2022/12/16 00:33:32;;;;;;;23.08;10.52;;;;;;;6.57;66.36;94964.81;4998727;28;20678;-64
2022/12/16 00:36:00;;;;;;;6.25;5.65;;;;;;;6.58;65.80;94976.00;5011709;28;20202;-63
2022/12/16 00:38:27;;;;;;;10.20;7.13;;;;;;;6.67;66.48;94985.84;5012244;28;20582;-64
2022/12/16 00:40:54;;;;;;;23.33;8.35;;;;;;;6.96;66.00;95000.53;5002959;28;20234;-65
2022/12/16 00:43:22;;;;;;;6.97;6.15;;;;;;;6.99;65.71;94991.44;5007860;28;20201;-66
2022/12/16 00:45:49;;;;;;;7.50;6.80;;;;;;;6.63;66.51;94976.91;5011942;28;20194;-67
2022/12/16 00:48:18;;;;;;;6.30;5.63;;;;;;;6.75;66.44;94962.06;5011933;28;20255;-70
2022/12/16 00:50:49;;;;;;;7.97;7.15;;;;;;;6.84;66.01;94975.53;5012095;28;20309;-66
2022/12/16 00:53:18;;;;;;;8.43;6.65;;;;;;;6.83;66.23;94979.94;5025538;28;20314;-66
2022/12/16 00:55:45;;;;;;;9.32;8.30;;;;;;;6.93;65.51;94969.72;5011927;28;20201;-66
2022/12/16 00:58:13;;;;;;;21.98;14.02;;;;;;;6.38;66.25;94965.97;5011927;28;20194;-67
2022/12/16 01:00:40;;;;;;;17.42;12.13;;;;;;;6.36;67.34;94991.41;5015451;28;20190;-67
2022/12/16 01:03:07;;;;;;;17.08;12.40;;;;;;;6.59;66.61;94962.75;5021719;28;20214;-66
2022/12/16 01:05:37;;;;;;;47.17;15.18;;;;;;;6.11;68.36;94985.66;4997802;28;20293;-64
2022/12/16 01:08:04;;;;;;;22.17;12.93;;;;;;;6.23;67.23;94983.84;5011740;28;20658;-65
2022/12/16 01:10:30;;;;;;;10.77;9.20;;;;;;;6.41;66.90;94965.50;5012162;28;20304;-65
2022/12/16 01:12:57;;;;;;;14.10;7.65;;;;;;;6.39;66.71;94961.53;5024533;28;20198;-64
2022/12/16 01:15:24;;;;;;;13.20;7.13;;;;;;;6.57;66.34;94975.22;5011157;28;20680;-66
2022/12/16 01:17:51;;;;;;;6.30;5.63;;;;;;;6.32;66.73;94976.47;5010613;28;20693;-67
2022/12/16 01:20:18;;;;;;;12.38;8.23;;;;;;;6.56;66.60;94962.44;5011135;28;20634;-64
2022/12/16 01:22:45;;;;;;;8.05;6.97;;;;;;;6.06;67.27;94977.72;5020492;28;20247;-65
2022/12/16 01:25:12;;;;;;;12.52;7.45;;;;;;;6.36;67.14;94973.22;5011193;28;20221;-65
2022/12/16 01:27:39;;;;;;;8.88;7.05;;;;;;;5.81;67.78;94979.69;5011114;28;20653;-65
2022/12/16 01:30:08;;;;;;;17.27;11.07;;;;;;;5.99;68.08;94961.44;5011042;28;20807;-66
2022/12/16 01:32:35;;;;;;;16.50;8.63;;;;;;;5.75;68.88;94959.78;5011256;28;20616;-65
2022/12/16 01:35:02;;;;;;;4.45;3.35;;;;;;;6.02;68.24;94945.38;5011226;28;20209;-65
2022/12/16 01:37:43;;;;;;;10.48;6.22;;;;;;;6.08;67.96;94952.28;5010942;28;20198;-64
2022/12/16 01:40:23;;;;;;;7.20;6.13;;;;;;;6.35;67.65;94957.81;5010867;28;20256;-66
2022/12/16 01:42:50;;;;;;;6.70;4.18;;;;;;;5.88;68.13;94957.00;5021817;28;20205;-64
2022/12/16 01:45:36;;;;;;;8.07;6.28;;;;;;;6.09;67.10;94940.88;5013614;28;20198;-69
2022/12/16 01:48:33;;;;;;;6.20;4.88;;;;;;;5.84;68.43;94958.47;5010869;28;20669;-68
2022/12/16 01:51:23;;;;;;;12.32;8.80;;;;;;;6.48;67.17;94934.94;4999507;28;20690;-67
2022/12/16 01:53:55;;;;;;;9.32;6.93;;;;;;;6.22;67.86;94940.63;5010551;28;20290;-65
2022/12/16 01:56:27;;;;;;;10.70;7.57;;;;;;;6.43;66.46;94934.84;5010373;28;20209;-67
2022/12/16 01:58:54;;;;;;;14.30;8.98;;;;;;;6.40;67.28;94953.53;5010454;28;20856;-67
2022/12/16 02:01:22;;;;;;;10.18;8.15;;;;;;;6.37;66.57;94932.38;5010324;28;20813;-66
2022/12/16 02:03:51;;;;;;;23.85;5.95;;;;;;;6.26;67.08;94952.16;5010235;28;20277;-67
2022/12/16 02:06:19;;;;;;;10.85;9.57;;;;;;;6.00;67.07;94911.00;5010678;28;20600;-68
2022/12/16 02:08:54;;;;;;;5.90;5.40;;;;;;;6.14;68.05;94938.38;5011045;28;20654;-65
2022/12/16 02:11:50;;;;;;;9.23;6.10;;;;;;;6.21;67.33;94920.81;5022494;28;20721;-64
2022/12/16 02:14:27;;;;;;;10.82;5.07;;;;;;;6.36;67.34;94934.19;5008860;28;20260;-64
2022/12/16 02:17:16;;;;;;;9.50;6.43;;;;;;;6.38;67.86;94898.31;5010298;28;20225;-67
2022/12/16 02:20:11;;;;;;;6.65;3.72;;;;;;;5.90;68.88;94926.38;4997648;28;20661;-64
2022/12/16 02:22:40;;;;;;;5.68;5.20;;;;;;;6.51;68.10;94905.88;5010160;28;20209;-67
2022/12/16 02:25:17;;;;;;;6.20;4.80;;;;;;;6.64;67.64;94905.59;5010125;28;20757;-68
2022/12/16 02:28:14;;;;;;;9.15;7.80;;;;;;;6.60;66.92;94909.69;5005740;28;20715;-65
2022/12/16 02:31:07;;;;;;;10.07;7.43;;;;;;;6.40;69.05;94911.88;5011892;28;20244;-66
2022/12/16 02:33:43;;;;;;;17.23;8.25;;;;;;;6.61;67.72;94924.28;5010589;28;20206;-66
2022/12/16 02:36:47;;;;;;;12.95;5.75;;;;;;;6.33;70.22;94907.81;4997597;28;20212;-66
2022/12/16 02:39:21;;;;;;;14.68;8.10;;;;;;;6.14;71.72;94914.97;5010025;28;20194;-67
2022/12/16 02:41:54;;;;;;;10.57;7.25;;;;;;;6.19;71.24;94894.25;5009891;28;20201;-68
2022/12/16 02:44:46;;;;;;;13.65;8.93;;;;;;;6.16;70.97;94936.34;5011757;28;20269;-65
2022/12/16 02:47:13;;;;;;;8.50;6.30;;;;;;;6.27;70.90;94922.53;4996810;28;20208;-67
2022/12/16 02:49:45;;;;;;;11.23;5.70;;;;;;;6.52;69.95;94936.06;5010255;28;20645;-66
2022/12/16 02:52:13;;;;;;;9.63;6.85;;;;;;;5.74;71.79;94933.00;5005721;28;20202;-66
2022/12/16 02:54:41;;;;;;;16.33;7.45;;;;;;;6.07;71.75;94922.09;5001235;28;20197;-67
2022/12/16 02:57:34;;;;;;;23.70;10.85;;;;;;;6.21;70.50;94970.25;5009439;28;20198;-67
2022/12/16 03:00:08;;;;;;;9.30;5.72;;;;;;;6.21;71.02;94953.84;5009733;28;20202;-66
2022/12/16 03:02:56;;;;;;;15.00;10.02;;;;;;;6.33;70.02;94973.66;5017771;28;20618;-65
2022/12/16 03:05:33;;;;;;;23.02;5.35;;;;;;;6.24;70.31;94963.81;5008266;28;20769;-66
2022/12/16 03:08:06;;;;;;;5.20;4.75;;;;;;;6.26;70.23;94967.00;5009645;28;20221;-64
2022/12/16 03:10:57;;;;;;;6.05;5.50;;;;;;;6.55;69.27;94932.22;5009504;28;20233;-66
2022/12/16 03:13:26;;;;;;;9.55;6.38;;;;;;;6.54;68.98;94941.84;5009090;28;20202;-64
2022/12/16 03:15:57;;;;;;;8.10;5.70;;;;;;;6.40;69.83;94945.72;5012302;28;20201;-65
2022/12/16 03:18:25;;;;;;;4.28;3.50;;;;;;;6.38;69.18;94926.94;5019089;28;20272;-64
2022/12/16 03:20:56;;;;;;;16.15;5.82;;;;;;;6.10;70.68;94939.84;5009469;28;20204;-66
2022/12/16 03:23:31;;;;;;;5.70;4.90;;;;;;;6.46;70.12;94931.75;5009495;28;20289;-65
2022/12/16 03:26:04;;;;;;;11.63;7.43;;;;;;;6.73;68.79;94925.03;4997237;28;20642;-64
2022/12/16 03:28:57;;;;;;;6.25;4.75;;;;;;;6.38;69.43;94913.13;5023183;28;20197;-67
2022/12/16 03:31:45;;;;;;;9.18;6.75;;;;;;;6.10;69.99;94939.84;5019303;28;20249;-67
2022/12/16 03:34:20;;;;;;;3.03;2.80;;;;;;;6.13;69.93;94905.59;4995415;28;20210;-66
2022/12/16 03:36:52;;;;;;;8.75;6.68;;;;;;;6.04;70.31;94909.50;5009039;28;20259;-66
2022/12/16 03:39:22;;;;;;;6.45;5.70;;;;;;;6.21;70.26;94907.81;5008765;28;20252;-65
2022/12/16 03:41:52;;;;;;;20.58;6.22;;;;;;;6.19;70.21;94928.06;5006117;28;20202;-66
2022/12/16 03:44:21;;;;;;;12.40;6.38;;;;;;;6.16;70.44;94946.75;4989330;28;20206;-65
2022/12/16 03:46:47;;;;;;;12.23;7.45;;;;;;;6.61;68.62;94924.28;5004571;28;20194;-64
2022/12/16 03:49:14;;;;;;;5.32;4.93;;;;;;;6.45;68.47;94960.63;5016300;28;20286;-65
2022/12/16 03:51:41;;;;;;;6.00;5.30;;;;;;;6.38;68.85;94919.13;5015193;28;20260;-63
2022/12/16 03:54:08;;;;;;;5.90;5.32;;;;;;;6.35;68.85;94942.97;4995134;28;20213;-67
2022/12/16 03:56:36;;;;;;;3.65;2.00;;;;;;;6.12;68.90;94943.81;5009448;28;20198;-64
2022/12/16 03:59:02;;;;;;;10.68;5.30;;;;;;;5.83;68.57;94973.28;5009055;28;20202;-64
2022/12/16 04:01:29;;;;;;;6.60;6.03;;;;;;;5.89;69.57;94950.81;5009359;28;20324;-63
2022/12/16 04:03:56;;;;;;;9.23;5.70;;;;;;;6.11;69.23;94973.41;4997606;28;20220;-67
2022/12/16 04:06:23;;;;;;;4.75;4.03;;;;;;;6.48;68.15;94963.56;5019599;28;20224;-64
2022/12/16 04:08:50;;;;;;;2.83;2.60;;;;;;;6.07;68.48;94963.69;5008763;28;20653;-65
2022/12/16 04:25:21;;;;;;;1.45;1.35;;;;;;;5.76;71.11;94958.78;5008596;28;20198;-65
2022/12/16 04:27:48;;;;;;;5.32;2.00;;;;;;;5.97;70.87;94946.06;5008676;28;20603;-65
2022/12/16 04:30:18;;;;;;;5.65;2.80;;;;;;;6.38;70.55;94934.75;5007971;28;20307;-64
